createdAt,value
2019-01-19T00:00:27.694Z,75.20
2019-01-19T00:03:31.146Z,75.60
2019-01-19T00:06:56.505Z,76.10
2019-01-19T00:09:40.638Z,76.90
2019-01-19T00:12:57.656Z,76.10
2019-01-19T00:16:05.138Z,76.70
2019-01-19T00:19:19.141Z,76.90
2019-01-19T00:22:14.475Z,75.20
2019-01-19T00:25:39.244Z,75.20
2019-01-19T00:29:33.257Z,76.00
2019-01-19T00:32:57.734Z,75.90
2019-01-19T00:36:13.127Z,75.90
2019-01-19T00:39:38.060Z,76.90
2019-01-19T00:43:01.021Z,78.00
2019-01-19T00:46:27.570Z,78.20
2019-01-19T00:49:20.443Z,76.60
2019-01-19T00:52:51.877Z,77.30
2019-01-19T00:55:51.756Z,77.20
2019-01-19T00:58:42.078Z,77.20
2019-01-19T01:02:26.188Z,77.20
2019-01-19T01:05:31.477Z,77.60
2019-01-19T01:08:50.244Z,77.40
2019-01-19T01:12:09.903Z,77.90
2019-01-19T01:15:24.759Z,78.70
2019-01-19T01:18:15.171Z,79.00
2019-01-19T01:21:29.420Z,77.40
2019-01-19T01:24:41.584Z,77.50
2019-01-19T01:28:22.672Z,76.90
2019-01-19T01:31:28.666Z,77.30
2019-01-19T01:34:49.419Z,77.20
2019-01-19T01:37:44.942Z,76.30
2019-01-19T01:41:08.801Z,76.10
2019-01-19T01:44:25.862Z,76.70
2019-01-19T01:48:09.766Z,77.60
2019-01-19T01:51:16.427Z,78.60
2019-01-19T01:54:11.788Z,76.80
2019-01-19T01:56:39.607Z,78.00
2019-01-19T01:59:49.992Z,77.10
2019-01-19T02:03:17.872Z,75.90
2019-01-19T02:06:25.568Z,76.00
2019-01-19T02:09:48.691Z,78.00
2019-01-19T02:13:00.013Z,75.60
2019-01-19T02:16:46.695Z,75.40
2019-01-19T02:19:38.056Z,75.80
2019-01-19T02:23:23.255Z,74.90
2019-01-19T02:27:06.454Z,74.80
2019-01-19T02:30:43.220Z,75.20
2019-01-19T02:34:19.869Z,75.90
2019-01-19T02:37:34.773Z,75.90
2019-01-19T02:40:44.823Z,76.20
2019-01-19T02:44:06.895Z,75.90
2019-01-19T02:47:17.620Z,74.80
2019-01-19T02:50:46.044Z,76.70
2019-01-19T02:54:26.911Z,76.50
2019-01-19T02:57:44.130Z,76.30
2019-01-19T03:01:05.343Z,74.80
2019-01-19T03:04:14.701Z,75.10
2019-01-19T03:07:58.144Z,75.90
2019-01-19T03:11:33.773Z,75.60
2019-01-19T03:15:12.214Z,75.50
2019-01-19T03:18:59.729Z,76.30
2019-01-19T03:22:24.006Z,75.70
2019-01-19T03:25:37.454Z,74.70
2019-01-19T03:29:13.670Z,75.40
2019-01-19T03:32:54.697Z,75.10
2019-01-19T03:36:27.176Z,75.50
2019-01-19T03:40:09.275Z,75.30
2019-01-19T03:43:30.093Z,74.80
2019-01-19T03:46:48.351Z,75.70
2019-01-19T03:50:44.568Z,75.60
2019-01-19T03:54:10.783Z,75.60
2019-01-19T03:57:25.156Z,74.80
2019-01-19T04:00:43.823Z,74.80
2019-01-19T04:04:08.934Z,75.90
2019-01-19T04:07:34.871Z,74.80
2019-01-19T04:10:39.897Z,74.80
2019-01-19T04:14:06.954Z,76.20
2019-01-19T04:17:43.050Z,74.90
2019-01-19T04:21:18.049Z,74.90
2019-01-19T04:23:53.509Z,74.20
2019-01-19T04:26:43.230Z,75.20
2019-01-19T04:29:11.045Z,74.90
2019-01-19T04:31:38.855Z,74.90
2019-01-19T04:34:07.043Z,75.00
2019-01-19T04:36:35.792Z,76.40
2019-01-19T04:39:18.874Z,75.30
2019-01-19T04:42:06.999Z,75.00
2019-01-19T04:44:34.750Z,75.60
2019-01-19T04:47:02.936Z,74.90
2019-01-19T04:49:30.733Z,74.90
2019-01-19T04:51:58.581Z,74.90
2019-01-19T04:54:26.461Z,75.00
2019-01-19T04:57:13.724Z,75.00
2019-01-19T04:59:41.522Z,75.00
2019-01-19T05:02:09.327Z,74.90
2019-01-19T05:04:37.108Z,74.00
2019-01-19T05:07:05.013Z,74.90
2019-01-19T05:09:32.776Z,74.50
2019-01-19T05:12:00.574Z,75.20
2019-01-19T05:14:28.351Z,76.30
2019-01-19T05:17:07.550Z,74.90
2019-01-19T05:19:35.379Z,74.90
2019-01-19T05:22:03.502Z,74.40
2019-01-19T05:24:31.299Z,74.80
2019-01-19T05:26:59.071Z,74.30
2019-01-19T05:29:26.881Z,73.40
2019-01-19T05:31:54.712Z,73.20
2019-01-19T05:34:22.496Z,74.80
2019-01-19T05:36:50.301Z,74.00
2019-01-19T05:39:18.080Z,73.80
2019-01-19T05:41:45.875Z,75.10
2019-01-19T05:44:13.714Z,74.90
2019-01-19T05:46:41.470Z,73.20
2019-01-19T05:49:09.238Z,74.30
2019-01-19T05:51:37.046Z,75.40
2019-01-19T05:54:04.849Z,75.00
2019-01-19T05:56:32.666Z,74.60
2019-01-19T05:59:00.694Z,74.60
2019-01-19T06:01:29.253Z,74.60
2019-01-19T06:03:57.042Z,75.10
2019-01-19T06:06:25.242Z,74.60
2019-01-19T06:08:53.199Z,74.50
2019-01-19T06:11:20.946Z,74.50
2019-01-19T06:13:48.750Z,74.50
2019-01-19T06:16:16.617Z,74.40
2019-01-19T06:19:09.651Z,74.40
2019-01-19T06:21:49.145Z,74.40
2019-01-19T06:24:16.997Z,75.60
2019-01-19T06:26:44.851Z,75.90
2019-01-19T06:29:12.622Z,74.40
2019-01-19T06:31:40.429Z,74.90
2019-01-19T06:34:08.293Z,75.90
2019-01-19T06:36:36.115Z,74.40
2019-01-19T06:39:07.887Z,74.70
2019-01-19T06:41:35.673Z,74.40
2019-01-19T06:44:03.449Z,74.00
2019-01-19T06:46:31.260Z,74.30
2019-01-19T06:48:59.211Z,75.40
2019-01-19T06:51:26.944Z,74.70
2019-01-19T06:54:01.493Z,76.10
2019-01-19T06:56:26.334Z,74.20
2019-01-19T06:58:54.267Z,75.00
2019-01-19T07:01:22.069Z,75.10
2019-01-19T07:03:49.885Z,75.60
2019-01-19T07:06:17.668Z,74.70
2019-01-19T07:08:45.505Z,74.70
2019-01-19T07:11:13.276Z,75.10
2019-01-19T07:13:41.090Z,74.40
2019-01-19T07:16:08.859Z,74.40
2019-01-19T07:18:36.694Z,74.10
2019-01-19T07:21:04.464Z,74.30
2019-01-19T07:23:32.275Z,75.10
2019-01-19T07:26:00.099Z,74.40
2019-01-19T07:28:27.877Z,74.60
2019-01-19T07:30:55.676Z,74.40
2019-01-19T07:33:23.477Z,73.60
2019-01-19T07:35:51.684Z,74.40
2019-01-19T07:39:05.764Z,74.90
2019-01-19T07:41:33.639Z,74.00
2019-01-19T07:44:01.431Z,74.70
2019-01-19T07:46:29.963Z,73.30
2019-01-19T07:48:57.701Z,73.60
2019-01-19T07:51:25.785Z,73.40
2019-01-19T07:53:53.729Z,73.20
2019-01-19T07:56:21.518Z,72.00
2019-01-19T07:58:49.281Z,72.70
2019-01-19T08:01:17.054Z,72.20
2019-01-19T08:03:44.856Z,72.70
2019-01-19T08:06:12.610Z,73.10
2019-01-19T08:08:40.423Z,71.70
2019-01-19T08:11:08.215Z,73.30
2019-01-19T08:13:36.034Z,72.60
2019-01-19T08:16:03.898Z,72.40
2019-01-19T08:18:31.933Z,72.40
2019-01-19T08:20:59.736Z,71.60
2019-01-19T08:23:27.522Z,71.80
2019-01-19T08:25:55.351Z,71.00
2019-01-19T08:28:23.223Z,71.60
2019-01-19T08:30:51.066Z,71.90
2019-01-19T08:33:18.858Z,72.30
2019-01-19T08:35:47.294Z,72.40
2019-01-19T08:38:15.218Z,71.60
2019-01-19T08:40:43.037Z,70.80
2019-01-19T08:43:18.577Z,70.90
2019-01-19T08:45:46.516Z,71.00
2019-01-19T08:48:15.325Z,71.50
2019-01-19T08:50:43.441Z,71.10
2019-01-19T08:53:11.258Z,70.60
2019-01-19T08:55:39.175Z,70.00
2019-01-19T08:58:27.184Z,69.20
2019-01-19T09:00:55.111Z,68.10
2019-01-19T09:03:22.851Z,67.60
2019-01-19T09:05:50.743Z,67.70
2019-01-19T09:08:18.529Z,66.60
2019-01-19T09:10:46.351Z,66.70
2019-01-19T09:13:14.175Z,65.50
2019-01-19T09:16:12.585Z,65.30
2019-01-19T09:18:40.462Z,66.00
2019-01-19T09:21:08.203Z,62.80
2019-01-19T09:23:41.974Z,62.70
2019-01-19T09:26:13.341Z,62.20
2019-01-19T09:28:41.095Z,62.20
2019-01-19T09:31:08.877Z,62.10
2019-01-19T09:33:36.666Z,61.20
2019-01-19T09:36:04.548Z,60.60
2019-01-19T09:38:32.332Z,61.00
2019-01-19T09:41:00.168Z,60.60
2019-01-19T09:43:28.006Z,60.20
2019-01-19T09:45:55.854Z,60.20
2019-01-19T09:48:23.654Z,59.60
2019-01-19T09:50:51.471Z,59.60
2019-01-19T09:53:19.335Z,58.90
2019-01-19T09:55:47.214Z,59.20
2019-01-19T09:58:15.000Z,58.90
2019-01-19T10:00:45.808Z,59.10
2019-01-19T10:03:32.038Z,59.30
2019-01-19T10:05:59.921Z,61.10
2019-01-19T10:08:27.793Z,59.70
2019-01-19T10:10:56.123Z,59.40
2019-01-19T10:13:24.309Z,60.20
2019-01-19T10:15:52.611Z,59.40
2019-01-19T10:18:21.244Z,59.60
2019-01-19T10:20:49.152Z,59.10
2019-01-19T10:23:16.996Z,58.80
2019-01-19T10:25:44.819Z,58.40
2019-01-19T10:28:12.734Z,58.40
2019-01-19T10:30:40.535Z,58.50
2019-01-19T10:33:08.432Z,59.40
2019-01-19T10:35:36.235Z,59.60
2019-01-19T10:38:04.047Z,58.10
2019-01-19T10:40:31.979Z,58.10
2019-01-19T10:42:59.760Z,58.10
2019-01-19T10:45:27.596Z,58.80
2019-01-19T10:47:55.390Z,58.30
2019-01-19T10:50:24.186Z,57.70
2019-01-19T10:52:52.230Z,58.40
2019-01-19T10:55:20.291Z,58.70
2019-01-19T10:57:48.107Z,57.50
2019-01-19T11:00:25.643Z,57.50
2019-01-19T11:02:54.000Z,57.10
2019-01-19T11:05:24.025Z,57.20
2019-01-19T11:07:51.898Z,56.90
2019-01-19T11:10:25.455Z,57.50
2019-01-19T11:13:04.068Z,56.80
2019-01-19T11:15:31.852Z,57.10
2019-01-19T11:18:00.085Z,56.20
2019-01-19T11:20:28.866Z,56.00
2019-01-19T11:22:58.437Z,55.30
2019-01-19T11:25:27.521Z,55.10
2019-01-19T11:28:00.746Z,54.90
2019-01-19T11:30:30.252Z,53.60
2019-01-19T11:32:58.218Z,53.70
2019-01-19T11:35:26.375Z,53.30
2019-01-19T11:37:59.483Z,53.00
2019-01-19T11:40:33.654Z,51.50
2019-01-19T11:43:01.504Z,50.80
2019-01-19T11:45:29.261Z,48.30
2019-01-19T11:47:58.281Z,45.20
2019-01-19T11:50:36.866Z,41.30
2019-01-19T11:53:06.325Z,39.30
2019-01-19T11:55:37.066Z,37.50
2019-01-19T11:58:07.223Z,36.10
2019-01-19T12:00:41.299Z,33.10
2019-01-19T12:03:12.311Z,32.00
2019-01-19T12:05:40.081Z,32.40
2019-01-19T12:08:09.724Z,30.90
2019-01-19T12:10:39.506Z,31.10
2019-01-19T12:13:09.083Z,31.90
2019-01-19T12:15:37.630Z,32.30
2019-01-19T12:18:05.689Z,32.60
2019-01-19T12:20:44.574Z,31.80
2019-01-19T12:23:12.610Z,30.70
2019-01-19T12:25:40.431Z,31.70
2019-01-19T12:28:08.289Z,31.80
2019-01-19T12:30:36.841Z,31.90
2019-01-19T12:33:04.898Z,31.40
2019-01-19T12:35:32.726Z,30.10
2019-01-19T12:38:00.717Z,29.30
2019-01-19T12:40:28.590Z,29.20
2019-01-19T12:43:00.163Z,29.60
2019-01-19T12:45:35.231Z,29.20
2019-01-19T12:48:03.025Z,29.80
2019-01-19T12:50:30.863Z,30.20
2019-01-19T12:52:58.683Z,30.50
2019-01-19T12:55:26.504Z,31.10
2019-01-19T12:57:54.320Z,31.40
2019-01-19T13:00:24.499Z,31.60
2019-01-19T13:02:52.564Z,32.70
2019-01-19T13:05:40.309Z,33.40
2019-01-19T13:08:38.699Z,32.70
2019-01-19T13:11:37.048Z,32.40
2019-01-19T13:14:05.080Z,33.30
2019-01-19T13:17:05.040Z,32.90
2019-01-19T13:20:30.234Z,33.00
2019-01-19T13:24:20.151Z,33.70
2019-01-19T13:27:57.982Z,32.50
2019-01-19T13:31:28.239Z,31.00
2019-01-19T13:34:34.525Z,30.40
2019-01-19T13:37:46.787Z,30.60
2019-01-19T13:41:17.696Z,30.70
2019-01-19T13:45:11.484Z,30.40
2019-01-19T13:48:29.382Z,29.30
2019-01-19T13:51:31.840Z,28.90
2019-01-19T13:55:06.795Z,28.30
2019-01-19T13:58:25.010Z,27.40
2019-01-19T14:01:20.191Z,28.10
2019-01-19T14:04:31.794Z,27.40
2019-01-19T14:07:53.323Z,26.50
2019-01-19T14:10:44.614Z,25.90
2019-01-19T14:14:18.388Z,25.70
2019-01-19T14:17:35.332Z,26.00
2019-01-19T14:20:23.533Z,25.50
2019-01-19T14:23:26.705Z,25.50
2019-01-19T14:26:52.549Z,26.20
2019-01-19T14:30:09.680Z,27.20
2019-01-19T14:33:26.897Z,27.50
2019-01-19T14:36:59.984Z,28.30
2019-01-19T14:40:11.280Z,28.70
2019-01-19T14:43:34.803Z,29.90
2019-01-19T14:46:40.881Z,30.60
2019-01-19T14:50:46.388Z,31.30
2019-01-19T14:54:10.162Z,32.10
2019-01-19T14:57:11.502Z,32.80
2019-01-19T15:00:46.778Z,34.30
2019-01-19T15:03:48.671Z,34.50
2019-01-19T15:07:12.752Z,34.30
2019-01-19T15:10:35.390Z,35.20
2019-01-19T15:14:00.627Z,36.40
2019-01-19T15:17:20.254Z,37.20
2019-01-19T15:20:51.563Z,37.80
2019-01-19T15:24:00.874Z,38.70
2019-01-19T15:27:43.321Z,40.00
2019-01-19T15:30:52.089Z,39.80
2019-01-19T15:34:38.005Z,40.80
2019-01-19T15:38:20.355Z,41.60
2019-01-19T15:41:56.055Z,42.10
2019-01-19T15:45:08.535Z,43.10
2019-01-19T15:48:20.841Z,43.00
2019-01-19T15:51:53.793Z,43.00
2019-01-19T15:55:09.693Z,43.00
2019-01-19T15:58:41.182Z,44.00
2019-01-19T16:02:13.277Z,45.30
2019-01-19T16:05:17.366Z,45.20
2019-01-19T16:08:31.215Z,45.40
2019-01-19T16:11:27.402Z,46.70
2019-01-19T16:14:55.123Z,47.10
2019-01-19T16:18:06.296Z,47.40
2019-01-19T16:21:42.169Z,47.60
2019-01-19T16:24:26.393Z,47.70
2019-01-19T16:27:59.771Z,48.30
2019-01-19T16:31:27.680Z,49.00
2019-01-19T16:34:57.142Z,50.00
2019-01-19T16:38:17.711Z,49.70
2019-01-19T16:41:53.672Z,50.10
2019-01-19T16:45:36.124Z,50.50
2019-01-19T16:49:00.357Z,51.90
2019-01-19T16:52:34.085Z,52.70
2019-01-19T16:55:59.058Z,51.70
2019-01-19T16:59:22.225Z,51.70
2019-01-19T17:02:57.426Z,51.70
2019-01-19T17:06:13.727Z,51.60
2019-01-19T17:09:32.680Z,52.40
2019-01-19T17:12:56.443Z,52.50
2019-01-19T17:16:05.310Z,52.90
2019-01-19T17:19:20.812Z,53.70
2019-01-19T17:22:52.826Z,53.50
2019-01-19T17:26:45.900Z,55.90
2019-01-19T17:30:24.428Z,56.20
2019-01-19T17:33:10.789Z,55.50
2019-01-19T17:36:44.953Z,56.10
2019-01-19T17:40:13.794Z,55.80
2019-01-19T17:43:32.894Z,56.80
2019-01-19T17:46:57.769Z,56.90
2019-01-19T17:50:14.235Z,56.90
2019-01-19T17:53:54.298Z,57.40
2019-01-19T17:56:55.815Z,57.30
2019-01-19T18:00:30.558Z,57.40
2019-01-19T18:03:35.867Z,58.10
2019-01-19T18:06:54.750Z,57.30
2019-01-19T18:10:21.276Z,58.50
2019-01-19T18:13:28.584Z,57.60
2019-01-19T18:16:57.953Z,58.10
2019-01-19T18:20:14.535Z,59.30
2019-01-19T18:23:31.338Z,61.60
2019-01-19T18:26:52.807Z,59.70
2019-01-19T18:30:16.535Z,59.50
2019-01-19T18:33:36.353Z,60.80
2019-01-19T18:37:38.477Z,60.90
2019-01-19T18:40:51.003Z,60.40
2019-01-19T18:44:20.900Z,60.40
2019-01-19T18:47:44.742Z,60.30
2019-01-19T18:51:22.706Z,60.70
2019-01-19T18:54:37.862Z,60.30
2019-01-19T18:57:52.118Z,60.20
2019-01-19T19:01:05.962Z,60.20
2019-01-19T19:04:34.221Z,61.20
2019-01-19T19:07:39.965Z,60.30
2019-01-19T19:10:59.866Z,60.60
2019-01-19T19:14:24.679Z,61.20
2019-01-19T19:18:02.975Z,61.30
2019-01-19T19:21:13.878Z,61.40
2019-01-19T19:24:37.678Z,61.60
2019-01-19T19:28:05.455Z,62.40
2019-01-19T19:31:35.504Z,62.00
2019-01-19T19:35:07.621Z,63.00
2019-01-19T19:38:19.626Z,63.40
2019-01-19T19:41:49.829Z,63.40
2019-01-19T19:45:10.592Z,64.00
2019-01-19T19:48:25.647Z,65.10
2019-01-19T19:51:36.262Z,64.10
2019-01-19T19:54:04.293Z,64.40
2019-01-19T19:56:30.596Z,64.10
2019-01-19T19:58:58.423Z,64.90
2019-01-19T20:01:26.238Z,65.20
2019-01-19T20:03:54.120Z,64.90
2019-01-19T20:06:21.967Z,64.90
2019-01-19T20:08:49.844Z,65.20
2019-01-19T20:11:17.811Z,65.50
2019-01-19T20:13:45.647Z,64.90
2019-01-19T20:16:13.475Z,66.00
2019-01-19T20:18:41.278Z,66.00
2019-01-19T20:21:09.119Z,65.40
2019-01-19T20:23:41.089Z,65.20
2019-01-19T20:26:08.958Z,65.70
2019-01-19T20:28:37.118Z,66.40
2019-01-19T20:31:04.893Z,66.40
2019-01-19T20:33:32.717Z,65.40
2019-01-19T20:36:00.518Z,66.70
2019-01-19T20:38:33.515Z,64.90
2019-01-19T20:41:01.369Z,65.60
2019-01-19T20:43:48.683Z,64.90
2019-01-19T20:46:16.697Z,67.30
2019-01-19T20:48:44.566Z,65.90
2019-01-19T20:51:13.246Z,66.40
2019-01-19T20:53:41.279Z,67.20
2019-01-19T20:56:09.132Z,66.30
2019-01-19T20:58:37.600Z,66.50
2019-01-19T21:01:06.122Z,66.60
2019-01-19T21:03:54.035Z,66.70
2019-01-19T21:06:24.601Z,68.30
2019-01-19T21:08:53.294Z,66.60
2019-01-19T21:11:21.567Z,66.60
2019-01-19T21:14:09.370Z,67.00
2019-01-19T21:16:37.640Z,68.20
2019-01-19T21:19:24.981Z,67.10
2019-01-19T21:21:52.819Z,67.20
2019-01-19T21:24:20.593Z,68.20
2019-01-19T21:26:48.437Z,68.40
2019-01-19T21:29:16.217Z,68.00
2019-01-19T21:31:44.178Z,69.50
2019-01-19T21:34:12.100Z,68.40
2019-01-19T21:36:39.921Z,69.60
2019-01-19T21:39:07.886Z,69.30
2019-01-19T21:41:55.314Z,70.40
2019-01-19T21:44:23.209Z,71.00
2019-01-19T21:46:56.138Z,69.60
2019-01-19T21:49:23.935Z,69.60
2019-01-19T21:51:51.742Z,70.20
2019-01-19T21:54:19.547Z,68.60
2019-01-19T21:56:48.170Z,68.30
2019-01-19T21:59:15.988Z,69.60
2019-01-19T22:01:43.844Z,68.80
2019-01-19T22:04:11.668Z,69.50
2019-01-19T22:06:39.502Z,69.20
2019-01-19T22:09:08.067Z,69.20
2019-01-19T22:11:37.057Z,68.60
2019-01-19T22:14:05.062Z,69.60
2019-01-19T22:16:32.846Z,68.20
2019-01-19T22:19:00.657Z,69.50
2019-01-19T22:21:29.761Z,69.50
2019-01-19T22:23:57.579Z,69.40
2019-01-19T22:26:26.908Z,69.40
2019-01-19T22:29:14.226Z,68.90
2019-01-19T22:31:42.086Z,70.70
2019-01-19T22:34:09.887Z,70.00
2019-01-19T22:36:38.562Z,68.50
2019-01-19T22:39:11.519Z,68.10
2019-01-19T22:41:39.305Z,68.00
2019-01-19T22:44:07.139Z,69.30
2019-01-19T22:46:34.961Z,68.80
2019-01-19T22:49:02.848Z,69.10
2019-01-19T22:51:30.800Z,69.30
2019-01-19T22:53:58.616Z,69.30
2019-01-19T22:56:26.417Z,69.80
2019-01-19T22:58:54.217Z,69.00
2019-01-19T23:01:43.102Z,69.30
2019-01-19T23:04:10.909Z,68.30
2019-01-19T23:06:38.716Z,69.80
2019-01-19T23:09:10.099Z,68.50
2019-01-19T23:11:38.091Z,69.30
2019-01-19T23:14:07.839Z,69.50
2019-01-19T23:16:35.671Z,68.90
2019-01-19T23:19:03.803Z,69.30
2019-01-19T23:21:31.609Z,69.20
2019-01-19T23:23:59.425Z,69.20
2019-01-19T23:26:28.097Z,69.60
2019-01-19T23:28:55.913Z,69.20
2019-01-19T23:31:23.896Z,69.50
2019-01-19T23:33:51.861Z,69.20
2019-01-19T23:36:19.669Z,69.20
2019-01-19T23:38:47.550Z,69.20
2019-01-19T23:41:15.383Z,69.50
2019-01-19T23:43:43.264Z,69.20
2019-01-19T23:46:11.114Z,69.10
2019-01-19T23:48:38.971Z,68.70
2019-01-19T23:51:06.820Z,69.10
2019-01-19T23:53:34.627Z,69.10
2019-01-19T23:56:02.436Z,69.30
2019-01-19T23:58:30.354Z,69.10
